Airfield :
LOGIN :

Register | Disclaimer

   EN    FR    IT 

 










Legend :    VFR   Marginal VFR   IFR   Intensive IFR   Very Intensive IFR
Visi :
Ceiling :
>= 8 km
>= 3000ft
5 to 8 km
1000 to 3000 ft
1500m to 5 km
500 to 1000 ft
800 to 1500m
200 to 500 ft
< 800m
< 200 ft
Symbols :   Thunderstorms  Fog  Heavy snow  Heavy precipitations  Wind > 20 kt
SIGMETs :     Misc.  Thunderstorms  Icing  Turbulence  Mountain Waves  Volcanic Ashes






- Airport Elevation : 791 ft
- IATA code : KRK


EPKK - Krakow-Balice

CURRENT METAR :
  • 091400Z 29013KT CAVOK 22/M04 Q1018

EXPIRED METARs :
  • 091330Z 24013KT 200V270 CAVOK 21/M03 Q1019
  • 091300Z 24013KT 210V270 CAVOK 21/M04 Q1019
  • 091230Z 23015KT CAVOK 21/M04 Q1019
  • 091200Z 25013KT 220V280 CAVOK 20/M04 Q1020
  • 091130Z 24014KT CAVOK 20/M05 Q1020

TAF TAF EPKK
Valid from the 09 at 12:00 until the 10 at 12:00 UTC


091130Z 0912/1012 25012KT CAVOK
TEMPO 0912/0916 25015G25KT
BECMG 0916/0918 32010KT
TEMPO 0916/0920 SCT040TCU



MET'MAP, your aeronautical weather chart ! - Copyright ORBIFLY December 2007 - Disclaimer

ORBIFLY MET'MAP TEAM :

Programming & Development : Alexandra Zaïnal
Concept & original design : Baudouin d'Aumeries
Assistance for programming : Marc-Olivier Méhu
Technical & hardware support : Manuel Goepfert

Contact : metmap@orbifly.com




SOURCES & CREDITS :

   NOAA